Time;durP1;ratioP1;P1;durP2;ratioP2;P2;SDS_P1;SDS_P2;PMS_P1;PMS_P2;Temp;Humidity;BMP_temperature;BMP_pressure;BME280_temperature;BME280_humidity;BME280_pressure;Samples;Min_cycle;Max_cycle;Signal;HPM_P1;HPM_P2
2023/03/26 00:00:54;;;;;;;5.57;2.03;;;;;;;11.23;54.84;99095.56;6209094;22;101271;-83
2023/03/26 00:03:21;;;;;;;4.10;2.17;;;;;;;11.31;54.83;99109.97;6184881;22;100963;-84
2023/03/26 00:05:47;;;;;;;4.13;1.83;;;;;;;11.31;54.70;99115.22;6185489;22;97056;-85
2023/03/26 00:08:14;;;;;;;4.28;2.13;;;;;;;11.32;54.89;99111.66;6210412;22;96758;-83
2023/03/26 00:10:41;;;;;;;4.55;2.05;;;;;;;11.38;54.57;99114.88;6184632;22;101685;-83
2023/03/26 00:13:07;;;;;;;4.28;1.85;;;;;;;11.37;55.12;99114.00;6182047;22;99598;-83
2023/03/26 00:15:36;;;;;;;3.50;2.10;;;;;;;11.25;54.87;99101.56;6163632;22;97208;-83
2023/03/26 00:18:02;;;;;;;4.45;2.17;;;;;;;11.49;54.62;99113.34;6164697;22;97109;-89
2023/03/26 00:20:31;;;;;;;3.45;1.83;;;;;;;11.29;54.85;99092.59;6215090;22;97939;-83
2023/03/26 00:23:00;;;;;;;3.15;2.00;;;;;;;11.26;55.30;99098.88;6165210;22;101206;-83
2023/03/26 00:25:26;;;;;;;5.28;1.80;;;;;;;11.25;55.10;99099.78;6164414;22;96869;-83
2023/03/26 00:27:51;;;;;;;4.18;1.98;;;;;;;11.28;55.31;99090.88;6164809;22;96902;-83
2023/03/26 00:30:17;;;;;;;2.85;1.80;;;;;;;11.20;55.55;99085.22;6213029;22;97966;-87
2023/03/26 00:32:43;;;;;;;4.97;1.70;;;;;;;11.23;55.15;99093.78;6213955;22;101275;-83
2023/03/26 00:35:09;;;;;;;4.28;1.80;;;;;;;11.22;55.54;99099.97;6163391;22;97079;-85
2023/03/26 00:37:35;;;;;;;3.63;2.35;;;;;;;11.18;55.76;99089.72;6215619;22;96726;-84
2023/03/26 00:40:05;;;;;;;5.78;2.08;;;;;;;11.18;55.95;99095.81;6189079;22;101122;-88
2023/03/26 00:42:32;;;;;;;4.80;1.98;;;;;;;11.12;56.16;99084.81;6214032;22;97926;-83
2023/03/26 00:44:57;;;;;;;5.97;2.00;;;;;;;11.03;56.11;99092.28;6162956;22;97014;-83
2023/03/26 00:47:24;;;;;;;5.68;2.20;;;;;;;10.83;56.50;99061.84;6160091;22;97207;-88
2023/03/26 00:49:50;;;;;;;4.25;1.80;;;;;;;11.04;56.43;99090.47;6183492;22;101304;-83
2023/03/26 00:52:17;;;;;;;3.97;1.58;;;;;;;11.09;56.34;99088.47;6159820;22;101259;-83
2023/03/26 00:54:47;;;;;;;2.88;1.30;;;;;;;10.93;56.16;99070.06;6239081;22;96697;-84
2023/03/26 00:57:13;;;;;;;4.35;1.55;;;;;;;10.95;56.52;99072.63;6189784;22;97096;-84
2023/03/26 00:59:40;;;;;;;3.17;1.42;;;;;;;10.99;56.55;99090.72;6164127;22;101082;-84
2023/03/26 01:02:17;;;;;;;3.85;1.83;;;;;;;10.83;56.37;99061.84;6188748;22;101604;-89
2023/03/26 01:04:54;;;;;;;2.92;1.73;;;;;;;10.99;56.48;99074.13;6164176;22;97038;-83
2023/03/26 01:07:27;;;;;;;3.30;1.50;;;;;;;11.05;56.52;99082.53;6241150;22;96842;-83
2023/03/26 01:09:55;;;;;;;3.97;1.83;;;;;;;10.99;56.05;99082.00;6215456;22;98070;-83
2023/03/26 01:12:24;;;;;;;5.40;2.30;;;;;;;10.99;56.11;99076.75;6188851;22;97342;-82
2023/03/26 01:14:51;;;;;;;2.70;1.70;;;;;;;10.92;55.75;99057.88;6163710;22;96991;-83
2023/03/26 01:17:16;;;;;;;4.13;1.50;;;;;;;11.03;55.62;99073.03;6188875;22;97073;-82
2023/03/26 01:20:29;;;;;;;3.45;1.67;;;;;;;10.98;56.10;99081.16;6189076;22;100690;-86
2023/03/26 01:22:59;;;;;;;4.80;1.90;;;;;;;11.01;55.79;99080.16;6238469;22;98423;-86
2023/03/26 01:25:28;;;;;;;6.43;1.93;;;;;;;10.83;56.26;99064.47;6189745;22;96639;-83
2023/03/26 01:27:55;;;;;;;3.20;1.85;;;;;;;10.96;55.71;99083.03;6189738;22;97041;-83
2023/03/26 01:30:32;;;;;;;2.17;1.65;;;;;;;10.92;56.02;99080.66;6188553;22;100209;-84
2023/03/26 01:33:12;;;;;;;3.60;1.90;;;;;;;10.92;56.25;99070.16;6215515;22;98732;-83
2023/03/26 01:35:50;;;;;;;4.32;1.73;;;;;;;10.96;55.85;99077.78;6165528;22;97138;-83
2023/03/26 01:38:45;;;;;;;4.07;1.90;;;;;;;10.97;55.55;99073.38;6162685;22;97013;-82
2023/03/26 01:41:14;;;;;;;3.53;1.98;;;;;;;10.96;56.12;99076.94;6213371;22;101927;-84
2023/03/26 01:44:07;;;;;;;4.15;2.15;;;;;;;10.98;55.91;99077.69;6189349;22;101507;-83
2023/03/26 01:46:35;;;;;;;4.88;1.90;;;;;;;10.83;56.67;99061.84;6215406;22;96602;-83
2023/03/26 01:49:03;;;;;;;2.13;1.42;;;;;;;10.92;56.23;99078.03;6215192;22;96994;-83
2023/03/26 01:51:35;;;;;;;2.95;1.52;;;;;;;10.88;57.10;99088.72;6163418;22;101346;-82
2023/03/26 01:54:03;;;;;;;3.85;1.75;;;;;;;10.89;56.80;99071.19;6188918;22;98414;-83
2023/03/26 01:57:06;;;;;;;5.05;2.38;;;;;;;10.98;56.64;99082.94;6162753;22;97132;-83
2023/03/26 01:59:50;;;;;;;3.65;1.85;;;;;;;11.00;56.83;99081.09;6216077;22;97160;-83
2023/03/26 02:02:30;;;;;;;2.67;1.60;;;;;;;11.01;57.12;99075.75;6188862;22;101503;-83
2023/03/26 02:05:04;;;;;;;5.75;1.92;;;;;;;10.99;56.98;99058.38;6189463;22;101389;-82
2023/03/26 02:08:02;;;;;;;3.78;1.67;;;;;;;10.88;56.80;99048.50;6214084;22;96695;-84
2023/03/26 02:10:41;;;;;;;4.43;2.05;;;;;;;11.00;57.09;99065.34;6238421;22;96745;-83
2023/03/26 02:13:07;;;;;;;4.38;2.10;;;;;;;10.92;56.97;99059.66;6215374;22;97507;-83
2023/03/26 02:15:32;;;;;;;6.65;2.40;;;;;;;10.91;57.04;99056.19;6208578;22;101063;-85
2023/03/26 02:17:58;;;;;;;3.03;1.90;;;;;;;10.94;56.89;99063.91;6186082;22;96887;-83
2023/03/26 02:20:28;;;;;;;4.18;2.08;;;;;;;10.90;57.11;99056.25;6160314;22;96937;-83
2023/03/26 02:22:55;;;;;;;4.25;2.10;;;;;;;10.92;57.20;99060.50;6211806;22;98407;-83
2023/03/26 02:25:21;;;;;;;3.30;1.73;;;;;;;10.93;57.32;99054.31;6211644;22;101664;-88
2023/03/26 02:27:49;;;;;;;2.97;1.75;;;;;;;10.74;57.10;99022.16;6186521;22;96884;-83
2023/03/26 02:30:18;;;;;;;2.53;1.60;;;;;;;11.00;57.00;99065.34;6186014;22;97032;-84
2023/03/26 02:32:50;;;;;;;3.67;1.77;;;;;;;10.94;57.20;99053.41;6185161;22;101436;-86
2023/03/26 02:35:17;;;;;;;4.97;1.90;;;;;;;10.97;56.63;99061.09;6161059;22;101310;-86
2023/03/26 02:37:45;;;;;;;3.20;1.60;;;;;;;10.93;56.66;99056.09;6161164;22;96915;-83
2023/03/26 02:40:19;;;;;;;4.57;1.67;;;;;;;10.96;57.16;99063.81;6212406;22;97043;-83
2023/03/26 02:42:47;;;;;;;2.97;1.75;;;;;;;10.94;56.92;99058.66;6186545;22;100093;-83
2023/03/26 02:45:13;;;;;;;5.25;1.80;;;;;;;10.97;57.17;99060.25;6184668;22;100858;-82
2023/03/26 02:48:01;;;;;;;2.47;1.35;;;;;;;11.01;57.21;99056.53;6211135;22;97007;-83
2023/03/26 02:50:48;;;;;;;3.30;1.60;;;;;;;10.77;57.56;99035.94;6194602;22;96930;-83
2023/03/26 02:53:38;;;;;;;3.20;1.63;;;;;;;10.99;57.34;99059.22;6195060;22;97470;-83
2023/03/26 02:56:22;;;;;;;3.85;1.83;;;;;;;10.97;57.36;99057.63;6210356;22;96997;-86
2023/03/26 02:59:04;;;;;;;;;;;;;;;11.05;57.34;99060.66;6167442;22;96775;-83
2023/03/26 03:01:33;;;;;;;3.75;1.90;;;;;;;10.96;57.34;99042.78;6183783;22;97428;-82
2023/03/26 03:04:02;;;;;;;2.42;1.52;;;;;;;10.95;57.80;99039.31;6185702;22;103358;-83
2023/03/26 03:06:34;;;;;;;3.95;1.70;;;;;;;10.99;57.65;99045.25;6185857;22;101570;-82
2023/03/26 03:09:03;;;;;;;5.72;2.00;;;;;;;11.11;57.38;99047.19;6211530;22;97218;-83
2023/03/26 03:11:35;;;;;;;3.60;1.88;;;;;;;11.05;57.66;99047.53;6210972;22;97010;-90
2023/03/26 03:14:01;;;;;;;4.40;1.80;;;;;;;10.97;57.94;99050.59;6189809;22;101340;-82
2023/03/26 03:16:29;;;;;;;2.33;1.73;;;;;;;11.04;57.45;99051.09;6164518;22;101564;-84
2023/03/26 03:18:57;;;;;;;4.13;1.55;;;;;;;11.10;57.92;99059.47;6190934;22;97142;-84
2023/03/26 03:21:27;;;;;;;3.63;1.80;;;;;;;11.12;57.55;99061.19;6189430;22;96876;-84
2023/03/26 03:23:54;;;;;;;3.42;2.15;;;;;;;11.09;57.26;99052.53;6163911;22;101718;-84
2023/03/26 03:26:21;;;;;;;5.95;1.80;;;;;;;11.02;57.65;99053.78;6189139;22;101729;-83
2023/03/26 03:28:50;;;;;;;5.10;2.13;;;;;;;11.10;57.60;99054.22;6164809;22;96783;-84
2023/03/26 03:31:17;;;;;;;4.50;1.52;;;;;;;11.06;57.60;99067.63;6187422;22;97093;-82
2023/03/26 03:33:45;;;;;;;4.93;1.73;;;;;;;10.91;57.52;99045.69;6185304;22;101306;-83
2023/03/26 03:36:12;;;;;;;3.15;1.52;;;;;;;11.07;57.87;99067.53;6161749;22;101017;-89
2023/03/26 03:38:39;;;;;;;3.45;1.75;;;;;;;10.98;57.93;99060.16;6190101;22;96648;-85
2023/03/26 03:41:05;;;;;;;4.22;1.60;;;;;;;11.04;57.26;99070.31;6163754;22;96972;-85
2023/03/26 03:43:34;;;;;;;3.63;1.50;;;;;;;11.06;57.09;99073.72;6188721;22;99587;-83
2023/03/26 03:46:07;;;;;;;5.25;1.67;;;;;;;10.96;57.00;99067.25;6215081;22;101599;-84
2023/03/26 03:48:37;;;;;;;2.08;1.20;;;;;;;10.95;56.41;99076.09;6191471;22;96779;-82
2023/03/26 03:51:04;;;;;;;4.03;1.50;;;;;;;11.02;56.55;99080.06;6189774;22;96995;-83
2023/03/26 03:53:40;;;;;;;3.17;1.30;;;;;;;11.01;56.12;99083.63;6168933;22;100998;-83
2023/03/26 03:56:09;;;;;;;4.75;1.50;;;;;;;11.03;55.94;99079.13;6164932;22;101534;-83
2023/03/26 03:58:53;;;;;;;2.28;1.17;;;;;;;10.93;56.09;99084.97;6220848;22;97084;-83
2023/03/26 04:01:29;;;;;;;4.00;1.20;;;;;;;10.78;56.17;99053.38;6192079;22;97157;-83
2023/03/26 04:04:20;;;;;;;2.75;1.25;;;;;;;11.02;55.65;99090.56;6212145;22;99238;-83
2023/03/26 04:07:05;;;;;;;3.72;1.20;;;;;;;11.02;55.68;99080.06;6219416;22;98850;-84
2023/03/26 04:09:41;;;;;;;4.03;1.10;;;;;;;11.05;55.84;99076.41;6168963;22;97046;-83
2023/03/26 04:12:15;;;;;;;3.92;1.20;;;;;;;11.05;55.92;99084.28;6191616;22;96977;-83
2023/03/26 04:14:45;;;;;;;1.50;0.88;;;;;;;11.03;55.58;99084.41;6190774;22;101616;-83
2023/03/26 04:17:14;;;;;;;3.83;1.15;;;;;;;11.03;55.45;99088.81;6189869;22;101413;-89
2023/03/26 04:19:42;;;;;;;2.05;1.10;;;;;;;11.03;55.17;99092.28;6191269;22;97070;-84
2023/03/26 04:22:10;;;;;;;1.60;0.95;;;;;;;11.05;55.04;99089.53;6191158;22;96801;-83
2023/03/26 04:24:48;;;;;;;1.63;0.90;;;;;;;11.10;55.26;99088.34;6191682;22;101242;-83
2023/03/26 04:27:26;;;;;;;2.42;1.00;;;;;;;11.08;54.73;99086.75;6191633;22;97593;-85
2023/03/26 04:29:57;;;;;;;2.83;1.00;;;;;;;11.07;54.70;99095.56;6165707;22;96903;-83
2023/03/26 04:32:28;;;;;;;3.03;1.10;;;;;;;10.98;54.77;99082.94;6164812;22;96971;-83
2023/03/26 04:34:59;;;;;;;3.22;1.52;;;;;;;11.10;54.81;99092.78;6190751;22;100467;-83
2023/03/26 04:37:38;;;;;;;2.33;1.05;;;;;;;11.10;54.96;99092.78;6190143;22;99402;-83
2023/03/26 04:40:20;;;;;;;1.90;0.95;;;;;;;10.93;54.98;99079.72;6192360;22;96696;-84
2023/03/26 04:43:01;;;;;;;2.35;1.10;;;;;;;10.99;55.08;99093.34;6192299;22;96698;-83
2023/03/26 04:45:51;;;;;;;3.25;1.30;;;;;;;10.91;55.05;99077.19;6182597;22;99197;-83
2023/03/26 04:48:19;;;;;;;2.05;0.90;;;;;;;10.85;55.29;99067.88;6164781;22;100735;-83
2023/03/26 04:50:45;;;;;;;2.50;0.90;;;;;;;10.99;55.74;99106.47;6164643;22;97157;-84
2023/03/26 04:53:17;;;;;;;4.85;1.02;;;;;;;10.90;55.83;99101.75;6165309;22;96753;-83
2023/03/26 04:56:20;;;;;;;2.33;0.88;;;;;;;10.86;56.22;99108.94;6197845;22;96962;-83
2023/03/26 04:59:28;;;;;;;2.40;1.10;;;;;;;10.81;56.53;99099.63;6208877;22;97427;-83
2023/03/26 05:01:58;;;;;;;2.08;0.90;;;;;;;10.71;56.87;99075.66;6189909;22;97226;-84
2023/03/26 05:04:28;;;;;;;2.30;0.63;;;;;;;10.80;57.08;99098.78;6164857;22;96854;-84
2023/03/26 05:06:55;;;;;;;2.00;0.90;;;;;;;10.73;57.13;99094.78;6214233;22;101463;-83
2023/03/26 05:09:39;;;;;;;2.15;0.60;;;;;;;10.71;56.99;99101.91;6193407;22;101462;-83
2023/03/26 05:12:34;;;;;;;2.05;0.50;;;;;;;10.68;57.25;99102.06;6185809;22;96731;-83
2023/03/26 05:15:23;;;;;;;0.80;0.50;;;;;;;10.69;56.99;99102.91;6187042;22;97182;-83
2023/03/26 05:18:00;;;;;;;0.60;0.60;;;;;;;10.64;56.75;99103.16;6217904;22;97785;-84
2023/03/26 05:20:37;;;;;;;1.00;0.60;;;;;;;10.59;56.66;99087.66;6214383;22;100555;-83
2023/03/26 05:23:06;;;;;;;1.00;0.70;;;;;;;10.78;56.74;99115.53;6214849;22;97051;-83
2023/03/26 05:25:34;;;;;;;1.42;0.63;;;;;;;10.66;56.67;99098.69;6190285;22;97303;-83
2023/03/26 05:28:01;;;;;;;1.48;0.50;;;;;;;10.61;56.93;99092.81;6189967;22;99592;-82
2023/03/26 05:30:42;;;;;;;2.22;0.60;;;;;;;10.56;57.47;99097.44;6214096;22;101358;-83
2023/03/26 05:33:08;;;;;;;1.45;0.60;;;;;;;10.60;57.14;99097.22;6214844;22;97063;-83
2023/03/26 05:35:48;;;;;;;1.20;0.60;;;;;;;10.57;57.66;99099.16;6212982;22;97065;-84
2023/03/26 05:38:14;;;;;;;1.35;0.57;;;;;;;10.64;57.60;99096.13;6214611;22;101045;-83
2023/03/26 05:40:39;;;;;;;1.60;0.50;;;;;;;10.70;57.63;99096.72;6214254;22;101514;-82
2023/03/26 05:43:06;;;;;;;0.65;0.55;;;;;;;10.76;57.13;99099.88;6241351;22;96913;-83
2023/03/26 05:45:40;;;;;;;2.35;0.70;;;;;;;10.71;57.51;99093.19;6190320;22;97437;-83
2023/03/26 05:48:16;;;;;;;1.33;0.60;;;;;;;10.85;57.18;99106.41;6191571;22;101873;-88
2023/03/26 05:50:42;;;;;;;0.90;0.80;;;;;;;10.71;57.62;99078.28;6188405;22;101835;-83
2023/03/26 05:53:08;;;;;;;1.45;0.90;;;;;;;10.80;57.32;99101.41;6189221;22;97033;-84
2023/03/26 05:56:03;;;;;;;1.08;0.60;;;;;;;10.77;57.63;99096.31;6105494;22;97024;-85
2023/03/26 05:58:47;;;;;;;1.98;0.80;;;;;;;10.83;57.67;99093.34;6240795;22;97012;-86
2023/03/26 06:01:28;;;;;;;1.50;0.80;;;;;;;10.97;57.33;99105.75;6240767;22;97113;-84
2023/03/26 06:04:14;;;;;;;1.83;0.90;;;;;;;10.97;57.69;99118.88;6241608;22;96875;-85
2023/03/26 06:06:46;;;;;;;1.48;0.70;;;;;;;11.05;57.60;99113.19;6191480;22;97068;-84
2023/03/26 06:09:12;;;;;;;2.97;1.00;;;;;;;11.10;57.23;99108.53;6214012;22;100415;-85
2023/03/26 06:11:39;;;;;;;1.88;0.90;;;;;;;11.22;57.00;99101.75;6212335;22;100469;-86
2023/03/26 06:14:05;;;;;;;3.53;1.00;;;;;;;11.17;57.34;99107.28;6208320;22;97491;-86
2023/03/26 06:16:32;;;;;;;2.28;1.13;;;;;;;11.09;57.23;99086.69;6159796;22;97073;-85
2023/03/26 06:19:10;;;;;;;2.22;1.15;;;;;;;11.27;56.88;99110.22;6187126;22;99294;-87
2023/03/26 06:21:56;;;;;;;2.55;1.00;;;;;;;11.35;56.99;99110.66;6189162;22;100401;-88
2023/03/26 06:24:30;;;;;;;2.95;1.00;;;;;;;11.25;56.93;99094.53;6184878;22;97212;-86
2023/03/26 06:27:20;;;;;;;2.67;0.80;;;;;;;11.28;57.13;99109.28;6187681;22;97953;-86
2023/03/26 06:30:21;;;;;;;2.97;1.00;;;;;;;11.29;56.61;99106.56;6208012;22;97368;-87
2023/03/26 06:32:58;;;;;;;5.03;0.82;;;;;;;11.33;56.84;99113.34;6185808;22;100252;-87
2023/03/26 06:35:28;;;;;;;1.85;0.98;;;;;;;11.25;57.01;99106.81;6180971;22;96779;-88
2023/03/26 06:37:55;;;;;;;2.03;0.90;;;;;;;11.23;56.66;99112.19;6183591;22;97430;-87
2023/03/26 06:40:21;;;;;;;5.35;1.30;;;;;;;11.27;57.06;99118.94;6182859;22;101327;-87
2023/03/26 06:43:11;;;;;;;3.67;0.90;;;;;;;11.29;57.17;99113.63;6206914;22;100361;-87
2023/03/26 06:45:49;;;;;;;3.92;1.00;;;;;;;11.27;56.56;99110.22;6184736;22;97109;-86
2023/03/26 06:48:35;;;;;;;1.33;1.00;;;;;;;11.32;56.76;99114.28;6192195;22;97410;-88
2023/03/26 06:51:16;;;;;;;1.60;1.00;;;;;;;11.36;56.48;99114.09;6164370;22;101281;-86
2023/03/26 06:54:00;;;;;;;4.10;1.70;;;;;;;11.34;56.47;99116.81;6209902;22;97134;-87
2023/03/26 06:56:42;;;;;;;;;;;;;;;11.33;56.51;99117.75;6166618;22;96712;-86
2023/03/26 06:59:35;;;;;;;2.05;0.90;;;;;;;11.38;56.54;99117.50;6169088;22;97703;-88
2023/03/26 07:02:19;;;;;;;3.03;0.93;;;;;;;11.36;56.37;99112.31;6187829;22;96982;-88
2023/03/26 07:05:03;;;;;;;4.57;1.00;;;;;;;11.41;56.19;99117.34;6210658;22;96990;-85
2023/03/26 07:07:47;;;;;;;3.22;1.10;;;;;;;11.35;55.57;99097.50;6211533;22;96621;-86
2023/03/26 07:10:32;;;;;;;2.83;0.95;;;;;;;11.46;55.60;99124.03;6210438;22;97158;-87
2023/03/26 07:13:26;;;;;;;4.00;1.13;;;;;;;11.38;56.06;99117.50;6143142;22;96781;-85
2023/03/26 07:16:18;;;;;;;2.28;1.02;;;;;;;11.41;56.21;99133.09;6154345;22;97764;-88
2023/03/26 07:22:14;;;;;;;1.55;1.00;;;;;;;11.25;57.29;99140.97;6185828;22;97232;-87
2023/03/26 07:24:58;;;;;;;3.38;1.17;;;;;;;11.27;57.70;99128.59;6207046;22;96906;-88
2023/03/26 07:27:59;;;;;;;1.95;1.05;;;;;;;11.32;58.73;99131.84;6181134;22;99522;-88
2023/03/26 07:30:46;;;;;;;2.03;1.20;;;;;;;11.32;58.94;99135.31;6159272;22;97348;-87
2023/03/26 07:33:53;;;;;;;4.22;1.23;;;;;;;11.35;58.73;99136.06;6183852;22;98030;-87
2023/03/26 07:37:07;;;;;;;3.05;1.30;;;;;;;11.46;58.40;99133.66;6179178;22;98763;-87
2023/03/26 07:40:37;;;;;;;4.35;1.75;;;;;;;11.47;59.02;99128.34;6097992;22;97766;-88
2023/03/26 07:43:36;;;;;;;6.20;2.78;;;;;;;11.49;58.55;99131.72;6096165;22;96892;-87
2023/03/26 07:46:11;;;;;;;6.03;2.70;;;;;;;11.53;58.94;99117.47;6210182;22;96659;-88
2023/03/26 07:48:48;;;;;;;3.35;1.60;;;;;;;11.52;58.33;99114.94;6184388;22;96906;-88
2023/03/26 07:51:35;;;;;;;2.20;1.30;;;;;;;11.67;58.02;99121.94;6182254;22;102025;-87
2023/03/26 07:54:22;;;;;;;2.60;1.10;;;;;;;11.56;57.67;99095.44;6183267;22;97098;-87
2023/03/26 07:57:29;;;;;;;6.30;2.70;;;;;;;11.77;57.63;99124.88;6209385;22;97649;-88
2023/03/26 08:00:17;;;;;;;7.72;1.85;;;;;;;11.73;57.21;99089.19;6162137;22;100341;-88
2023/03/26 08:02:45;;;;;;;2.50;1.42;;;;;;;11.87;57.45;99118.19;6184821;22;97772;-88
2023/03/26 08:06:07;;;;;;;2.75;1.10;;;;;;;11.90;56.43;99106.66;6208251;22;96929;-87
2023/03/26 08:08:39;;;;;;;2.83;1.25;;;;;;;11.87;56.07;99115.56;6157974;22;97019;-87
2023/03/26 08:11:45;;;;;;;4.00;1.80;;;;;;;11.88;56.24;99113.78;6203329;22;99858;-87
2023/03/26 08:14:41;;;;;;;3.17;1.65;;;;;;;11.91;56.56;99103.94;6182127;22;98156;-88
2023/03/26 08:17:15;;;;;;;2.80;1.30;;;;;;;11.89;56.39;99103.16;6181233;22;97236;-90
2023/03/26 08:19:53;;;;;;;2.05;1.33;;;;;;;11.91;56.34;99105.72;6207151;22;97114;-88
2023/03/26 08:22:26;;;;;;;3.20;1.50;;;;;;;11.88;56.10;99096.22;6181181;22;101601;-87
2023/03/26 08:25:24;;;;;;;3.30;1.27;;;;;;;11.95;55.73;99104.59;6180303;22;100201;-87
2023/03/26 08:27:59;;;;;;;3.42;1.20;;;;;;;11.99;56.19;99103.50;6203186;22;97059;-88
2023/03/26 08:30:26;;;;;;;2.55;1.10;;;;;;;11.92;56.01;99091.63;6206047;22;97155;-89
2023/03/26 08:32:55;;;;;;;3.50;1.20;;;;;;;11.95;56.19;99089.66;6180846;22;101513;-87
2023/03/26 08:35:22;;;;;;;3.53;1.60;;;;;;;12.17;55.76;99081.34;6205504;22;100067;-87
2023/03/26 08:37:48;;;;;;;3.38;1.42;;;;;;;12.62;54.89;99086.50;6156746;22;96726;-88
2023/03/26 08:40:36;;;;;;;2.47;1.10;;;;;;;12.70;53.91;99063.19;6154665;22;97700;-88
2023/03/26 08:43:17;;;;;;;3.13;1.70;;;;;;;13.49;52.41;99078.34;6205694;22;98288;-83
2023/03/26 08:45:50;;;;;;;2.47;0.82;;;;;;;13.55;51.16;99071.81;6204774;22;99258;-85
2023/03/26 08:48:34;;;;;;;5.05;0.95;;;;;;;13.88;50.75;99081.94;6184355;22;96718;-77
2023/03/26 08:51:26;;;;;;;1.70;0.90;;;;;;;14.75;49.31;99067.16;6182706;22;97206;-75
2023/03/26 08:54:26;;;;;;;4.18;1.10;;;;;;;15.51;46.43;99055.44;6208522;22;101488;-78
2023/03/26 08:57:17;;;;;;;3.80;0.95;;;;;;;15.66;46.33;99052.63;6181758;22;101434;-81
2023/03/26 09:00:09;;;;;;;3.60;1.25;;;;;;;15.81;46.27;99059.44;6206372;22;97074;-82
2023/03/26 09:02:41;;;;;;;3.15;1.08;;;;;;;16.07;46.29;99066.22;6179232;22;96730;-81
2023/03/26 09:05:13;;;;;;;;;;;;;;;16.46;44.12;99058.81;6205366;22;97989;-83
2023/03/26 09:07:51;;;;;;;1.77;0.80;;;;;;;16.81;43.43;99065.78;6179269;22;100772;-82
2023/03/26 09:10:40;;;;;;;1.40;0.95;;;;;;;16.58;43.92;99062.31;6204903;22;96781;-83
2023/03/26 09:13:33;;;;;;;3.13;1.15;;;;;;;16.59;44.52;99063.16;6231317;22;96673;-83
2023/03/26 09:16:21;;;;;;;3.20;1.80;;;;;;;16.39;45.07;99054.94;6202099;22;101384;-83
2023/03/26 09:19:14;;;;;;;4.88;1.15;;;;;;;16.28;45.60;99057.59;6178969;22;97741;-90
2023/03/26 09:21:48;;;;;;;3.17;1.30;;;;;;;16.23;45.27;99057.97;6205443;22;97199;-84
2023/03/26 09:24:23;;;;;;;1.95;1.00;;;;;;;17.04;44.31;99056.00;6206607;22;97613;-82
2023/03/26 09:26:49;;;;;;;2.72;1.20;;;;;;;17.43;43.06;99048.44;6202418;22;97901;-82
2023/03/26 09:29:31;;;;;;;2.75;0.90;;;;;;;17.58;42.76;99047.16;6205051;22;97959;-82
2023/03/26 09:32:14;;;;;;;2.08;1.00;;;;;;;17.64;42.77;99032.53;6176419;22;97333;-82
2023/03/26 09:35:14;;;;;;;2.13;1.10;;;;;;;17.81;41.75;99047.09;6152247;22;97284;-82
2023/03/26 09:37:57;;;;;;;1.80;0.80;;;;;;;17.47;43.55;99049.84;6201970;22;101651;-81
2023/03/26 09:40:53;;;;;;;4.75;1.48;;;;;;;17.07;43.75;99058.41;6153491;22;101062;-82
2023/03/26 09:43:25;;;;;;;3.85;1.17;;;;;;;16.52;44.85;99068.06;6169091;22;97245;-82
2023/03/26 09:46:15;;;;;;;2.40;0.98;;;;;;;16.16;46.11;99064.66;6178074;22;96931;-82
2023/03/26 09:48:47;;;;;;;3.92;1.13;;;;;;;16.26;46.33;99057.72;6204888;22;98615;-82
2023/03/26 09:51:32;;;;;;;1.95;1.13;;;;;;;16.32;46.25;99060.84;6202262;22;101001;-82
2023/03/26 09:54:11;;;;;;;3.72;1.13;;;;;;;16.29;46.55;99062.78;6181011;22;97044;-82
2023/03/26 09:56:57;;;;;;;2.17;1.35;;;;;;;16.28;46.43;99047.84;6182264;22;97645;-81
2023/03/26 09:59:25;;;;;;;3.95;1.17;;;;;;;16.13;47.16;99067.56;6205923;22;98131;-82
2023/03/26 10:01:56;;;;;;;2.30;0.88;;;;;;;16.18;46.88;99048.69;6206246;22;101295;-82
2023/03/26 10:04:32;;;;;;;3.80;1.10;;;;;;;16.20;46.95;99058.19;6202997;22;97141;-82
2023/03/26 10:07:22;;;;;;;3.20;1.58;;;;;;;15.91;47.52;99057.78;6205726;22;97835;-82
2023/03/26 10:10:14;;;;;;;4.40;1.73;;;;;;;15.81;47.62;99056.78;6205221;22;97927;-82
2023/03/26 10:12:45;;;;;;;2.55;1.52;;;;;;;15.44;46.95;99066.59;6204407;22;101266;-81
2023/03/26 10:15:31;;;;;;;2.08;1.00;;;;;;;15.07;46.09;99071.94;6152613;22;97807;-81
2023/03/26 10:18:14;;;;;;;2.47;1.20;;;;;;;14.85;45.84;99072.63;6156223;22;97186;-80
2023/03/26 10:20:58;;;;;;;1.23;0.90;;;;;;;14.65;46.26;99060.81;6180150;22;101223;-80
2023/03/26 10:23:58;;;;;;;2.70;1.20;;;;;;;14.58;46.09;99064.88;6179762;22;101403;-80
2023/03/26 10:26:40;;;;;;;2.05;1.00;;;;;;;14.47;46.12;99050.56;6180805;22;97051;-80
2023/03/26 10:29:29;;;;;;;2.70;1.00;;;;;;;14.31;46.20;99042.06;6233413;22;97011;-79
2023/03/26 10:32:09;;;;;;;1.35;0.90;;;;;;;14.37;46.57;99057.47;6179642;22;101471;-80
2023/03/26 10:35:02;;;;;;;1.88;0.90;;;;;;;14.44;45.95;99052.59;6157900;22;101546;-80
2023/03/26 10:37:44;;;;;;;1.90;1.02;;;;;;;14.61;46.02;99027.69;6155242;22;97138;-80
2023/03/26 10:40:19;;;;;;;2.83;1.02;;;;;;;14.82;45.19;99038.50;6180827;22;97394;-80
2023/03/26 10:43:00;;;;;;;5.43;1.52;;;;;;;14.62;44.56;99042.56;6206866;22;97556;-81
2023/03/26 10:45:36;;;;;;;2.13;0.70;;;;;;;14.37;45.17;99036.34;6179587;22;101357;-82
2023/03/26 10:48:20;;;;;;;2.42;1.10;;;;;;;14.40;45.40;99035.28;6156855;22;97213;-79
2023/03/26 10:51:04;;;;;;;2.67;0.82;;;;;;;14.33;45.39;99034.00;6182958;22;97508;-79
2023/03/26 10:53:53;;;;;;;2.47;1.00;;;;;;;14.18;44.87;99028.84;6205829;22;97608;-80
2023/03/26 10:56:23;;;;;;;2.42;0.93;;;;;;;14.17;45.22;99006.06;6205602;22;97558;-80
2023/03/26 10:58:49;;;;;;;2.83;1.35;;;;;;;14.33;45.15;99020.81;6205136;22;97050;-80
2023/03/26 11:01:37;;;;;;;3.17;1.60;;;;;;;14.29;44.83;99017.56;6234183;22;96846;-79
2023/03/26 11:04:21;;;;;;;2.72;1.58;;;;;;;14.31;45.55;99033.25;6182558;22;101548;-78
2023/03/26 11:07:28;;;;;;;2.67;1.33;;;;;;;14.29;46.17;99025.47;6205263;22;101133;-79
2023/03/26 11:10:03;;;;;;;2.55;1.17;;;;;;;14.43;46.20;99022.72;6205790;22;96806;-78
2023/03/26 11:12:55;;;;;;;3.28;1.25;;;;;;;14.46;46.58;98984.69;6205662;22;96887;-78
2023/03/26 11:15:30;;;;;;;2.33;1.00;;;;;;;14.78;46.78;99011.47;6180996;22;101487;-79
2023/03/26 11:17:56;;;;;;;1.98;1.20;;;;;;;14.82;46.97;99001.50;6210220;22;97203;-78
2023/03/26 11:20:26;;;;;;;3.38;1.42;;;;;;;14.86;46.13;99006.44;6178404;22;98144;-78
2023/03/26 11:23:16;;;;;;;2.20;1.17;;;;;;;14.88;45.83;99003.72;6183080;22;97183;-78
2023/03/26 11:26:02;;;;;;;2.33;1.25;;;;;;;14.88;45.30;99009.00;6181115;22;101285;-78
2023/03/26 11:28:52;;;;;;;4.50;1.40;;;;;;;14.96;45.19;99011.09;6154066;22;101594;-82
2023/03/26 11:31:21;;;;;;;3.00;1.27;;;;;;;14.92;44.16;99003.38;6208661;22;97065;-81
2023/03/26 11:33:52;;;;;;;1.67;1.05;;;;;;;14.81;43.47;98994.56;6181180;22;97241;-81
2023/03/26 11:36:29;;;;;;;2.88;0.90;;;;;;;14.77;42.25;98993.06;6233948;22;98256;-82
2023/03/26 11:38:57;;;;;;;2.90;1.00;;;;;;;14.79;42.05;98986.72;6179317;22;99158;-82
2023/03/26 11:41:31;;;;;;;3.22;1.20;;;;;;;14.65;41.80;98984.25;6180614;22;96745;-83
2023/03/26 11:44:15;;;;;;;3.70;1.00;;;;;;;14.74;42.41;99004.69;6160456;22;96757;-81
2023/03/26 11:46:43;;;;;;;2.20;1.10;;;;;;;14.69;42.12;98977.81;6153500;22;101615;-81
2023/03/26 11:49:11;;;;;;;2.20;1.05;;;;;;;14.77;42.75;98991.28;6205238;22;101420;-82
2023/03/26 11:51:38;;;;;;;4.50;1.90;;;;;;;14.69;43.36;98989.19;6203285;22;97083;-82
2023/03/26 11:54:05;;;;;;;4.72;1.50;;;;;;;14.63;43.79;98978.22;6179757;22;97227;-82
2023/03/26 11:56:36;;;;;;;3.40;1.38;;;;;;;14.73;44.75;98983.69;6229845;22;97994;-82
2023/03/26 11:59:08;;;;;;;3.08;1.15;;;;;;;14.74;45.55;98994.13;6154687;22;101735;-81
2023/03/26 12:01:43;;;;;;;6.85;1.42;;;;;;;14.77;45.93;98983.34;6179826;22;96739;-82
2023/03/26 12:04:12;;;;;;;4.75;1.80;;;;;;;14.67;46.75;98972.59;6176798;22;97385;-82
2023/03/26 12:06:38;;;;;;;5.35;1.88;;;;;;;14.74;46.95;98982.72;6178129;22;98400;-82
2023/03/26 12:09:16;;;;;;;5.38;2.05;;;;;;;14.49;47.52;98993.22;6179660;22;97983;-82
2023/03/26 12:11:43;;;;;;;4.05;1.60;;;;;;;14.39;47.60;98970.22;6179485;22;96716;-81
2023/03/26 12:14:19;;;;;;;4.97;1.65;;;;;;;14.65;47.80;98985.06;6178951;22;96827;-82
2023/03/26 12:16:57;;;;;;;4.05;1.65;;;;;;;14.63;47.83;98989.66;6203620;22;98103;-82
2023/03/26 12:19:23;;;;;;;3.13;1.55;;;;;;;14.62;48.08;98980.00;6207282;22;98948;-81
2023/03/26 12:21:50;;;;;;;4.25;1.88;;;;;;;14.56;48.13;98972.53;6175582;22;97033;-81